createdAt,value
2023-01-19T00:04:02.244Z,8.50
2023-01-19T00:09:03.949Z,8.95
2023-01-19T00:14:06.060Z,9.02
2023-01-19T00:19:08.712Z,8.18
2023-01-19T00:24:11.259Z,12.45
2023-01-19T00:29:13.948Z,8.65
2023-01-19T00:34:15.794Z,9.57
2023-01-19T00:39:17.415Z,8.75
2023-01-19T00:44:19.274Z,8.48
2023-01-19T00:49:20.901Z,8.73
2023-01-19T00:54:22.516Z,8.52
2023-01-19T00:59:25.790Z,7.72
2023-01-19T01:04:27.442Z,8.43
2023-01-19T01:09:29.262Z,7.75
2023-01-19T01:14:31.098Z,10.52
2023-01-19T01:19:32.897Z,8.93
2023-01-19T01:24:35.679Z,8.15
2023-01-19T01:29:37.837Z,7.65
2023-01-19T01:34:39.762Z,9.90
2023-01-19T01:39:41.430Z,7.40
2023-01-19T01:44:52.748Z,8.38
2023-01-19T01:50:09.963Z,7.88
2023-01-19T01:55:13.126Z,7.20
2023-01-19T02:00:15.561Z,7.53
2023-01-19T02:05:31.707Z,8.93
2023-01-19T02:10:52.464Z,8.30
2023-01-19T02:15:58.467Z,7.47
2023-01-19T02:21:15.063Z,8.75
2023-01-19T02:26:20.981Z,6.75
2023-01-19T02:31:23.010Z,7.57
2023-01-19T02:36:40.385Z,7.88
2023-01-19T02:41:47.712Z,8.43
2023-01-19T02:46:49.570Z,7.20
2023-01-19T02:51:51.199Z,7.88
2023-01-19T02:57:08.269Z,7.20
2023-01-19T03:02:33.341Z,8.38
2023-01-19T03:07:37.964Z,9.52
2023-01-19T03:12:50.174Z,10.95
2023-01-19T03:17:53.425Z,9.27
2023-01-19T03:23:05.301Z,10.35
2023-01-19T03:28:06.928Z,11.60
2023-01-19T03:33:14.676Z,9.27
2023-01-19T03:38:22.123Z,10.85
2023-01-19T03:43:25.101Z,12.07
2023-01-19T03:48:27.143Z,10.55
2023-01-19T03:53:28.966Z,12.93
2023-01-19T03:58:30.591Z,9.65
2023-01-19T04:03:32.178Z,10.43
2023-01-19T04:08:33.922Z,10.93
2023-01-19T04:13:36.406Z,9.27
2023-01-19T04:18:38.088Z,11.48
2023-01-19T04:23:39.746Z,10.75
2023-01-19T04:28:41.525Z,11.80
2023-01-19T04:33:43.334Z,10.65
2023-01-19T04:38:46.667Z,12.20
2023-01-19T04:43:49.227Z,12.18
2023-01-19T04:48:50.931Z,11.40
2023-01-19T04:53:52.571Z,16.40
2023-01-19T04:58:54.223Z,12.13
2023-01-19T05:03:59.026Z,14.32
2023-01-19T05:09:00.723Z,10.30
2023-01-19T05:14:02.327Z,10.75
2023-01-19T05:19:04.018Z,12.30
2023-01-19T05:24:06.003Z,12.40
2023-01-19T05:29:08.237Z,12.13
2023-01-19T05:34:11.933Z,12.23
2023-01-19T05:39:13.659Z,13.10
2023-01-19T05:44:15.359Z,11.07
2023-01-19T05:49:16.999Z,16.13
2023-01-19T05:54:19.010Z,13.63
2023-01-19T05:59:24.167Z,12.60
2023-01-19T06:04:26.908Z,13.13
2023-01-19T06:09:29.311Z,12.82
2023-01-19T06:14:31.378Z,13.57
2023-01-19T06:19:33.706Z,12.93
2023-01-19T06:24:35.757Z,12.73
2023-01-19T06:29:37.440Z,17.55
2023-01-19T06:34:43.760Z,15.55
2023-01-19T06:39:45.563Z,15.43
2023-01-19T06:44:48.016Z,14.65
2023-01-19T06:49:49.912Z,16.08
2023-01-19T06:54:51.504Z,16.30
2023-01-19T06:59:53.174Z,17.17
2023-01-19T07:04:55.492Z,14.70
2023-01-19T07:09:57.310Z,13.45
2023-01-19T07:14:58.899Z,13.57
2023-01-19T07:20:00.578Z,14.00
2023-01-19T07:25:02.627Z,15.35
2023-01-19T07:30:04.754Z,13.32
2023-01-19T07:35:06.661Z,13.13
2023-01-19T07:40:10.252Z,14.57
2023-01-19T07:45:11.925Z,13.30
2023-01-19T07:50:13.962Z,15.82
2023-01-19T07:55:15.674Z,37.53
2023-01-19T08:00:22.024Z,14.88
2023-01-19T08:05:23.876Z,16.63
2023-01-19T08:10:27.207Z,17.45
2023-01-19T08:15:28.887Z,14.77
2023-01-19T08:20:31.002Z,15.45
2023-01-19T08:25:34.351Z,18.70
2023-01-19T08:30:36.412Z,13.38
2023-01-19T08:35:43.048Z,14.23
2023-01-19T08:40:45.144Z,12.90
2023-01-19T08:45:51.566Z,12.60
2023-01-19T08:50:53.656Z,12.45
2023-01-19T08:56:01.303Z,13.20
2023-01-19T09:01:04.058Z,17.07
2023-01-19T09:06:07.573Z,20.20
2023-01-19T09:11:13.696Z,12.07
2023-01-19T09:16:15.935Z,9.13
2023-01-19T09:21:18.621Z,10.82
2023-01-19T09:26:22.261Z,10.18
2023-01-19T09:31:24.192Z,12.68
2023-01-19T09:36:26.767Z,15.40
2023-01-19T09:41:29.732Z,15.02
2023-01-19T09:46:40.357Z,18.52
2023-01-19T09:51:46.755Z,15.02
2023-01-19T09:56:52.417Z,12.02
2023-01-19T10:02:10.545Z,15.23
2023-01-19T10:07:37.987Z,18.42
2023-01-19T10:12:57.471Z,16.88
2023-01-19T10:18:34.913Z,9.57
2023-01-19T10:23:57.601Z,7.57
2023-01-19T10:29:04.395Z,7.10
2023-01-19T10:34:06.113Z,7.38
2023-01-19T10:39:11.584Z,7.40
2023-01-19T10:44:24.457Z,7.00
2023-01-19T10:49:40.461Z,6.60
2023-01-19T10:54:43.537Z,7.05
2023-01-19T10:59:45.249Z,8.27
2023-01-19T11:04:53.013Z,5.68
2023-01-19T11:10:23.066Z,10.23
2023-01-19T11:15:47.645Z,15.75
2023-01-19T11:20:55.370Z,12.35
2023-01-19T11:26:02.565Z,12.17
2023-01-19T11:31:10.505Z,6.20
2023-01-19T11:36:32.912Z,7.88
2023-01-19T11:41:37.566Z,8.30
2023-01-19T11:46:42.492Z,9.57
2023-01-19T11:51:58.839Z,9.80
2023-01-19T11:57:01.964Z,10.40
2023-01-19T12:02:16.609Z,10.93
2023-01-19T12:07:25.871Z,12.35
2023-01-19T12:12:31.683Z,11.18
2023-01-19T12:17:47.615Z,9.02
2023-01-19T12:22:59.771Z,6.70
2023-01-19T12:28:02.845Z,9.13
2023-01-19T12:33:20.641Z,8.50
2023-01-19T12:38:49.467Z,28.15
2023-01-19T12:44:22.361Z,7.85
2023-01-19T12:49:41.581Z,9.18
2023-01-19T12:55:03.009Z,11.32
2023-01-19T13:00:27.371Z,9.05
2023-01-19T13:05:33.233Z,14.50
2023-01-19T13:10:59.386Z,7.25
2023-01-19T13:16:29.989Z,7.90
2023-01-19T13:21:42.354Z,7.82
2023-01-19T13:26:55.016Z,4.72
2023-01-19T13:32:02.899Z,5.65
2023-01-19T13:37:06.278Z,28.65
2023-01-19T13:42:18.469Z,7.03
2023-01-19T13:47:36.798Z,7.75
2023-01-19T13:52:43.386Z,9.38
2023-01-19T13:57:46.743Z,7.88
2023-01-19T14:03:13.318Z,8.30
2023-01-19T14:08:18.104Z,7.78
2023-01-19T14:13:29.532Z,7.85
2023-01-19T14:18:33.899Z,8.45
2023-01-19T14:23:47.618Z,7.25
2023-01-19T14:28:49.645Z,5.60
2023-01-19T14:33:55.622Z,4.78
2023-01-19T14:39:00.049Z,6.60
2023-01-19T14:44:02.945Z,15.70
2023-01-19T14:49:06.487Z,8.73
2023-01-19T14:54:17.671Z,7.95
2023-01-19T14:59:19.372Z,28.40
2023-01-19T15:04:21.014Z,18.52
2023-01-19T15:09:23.107Z,25.40
2023-01-19T15:14:24.871Z,17.67
2023-01-19T15:19:27.004Z,13.73
2023-01-19T15:24:28.704Z,5.13
2023-01-19T15:29:32.252Z,13.23
2023-01-19T15:34:33.993Z,13.48
2023-01-19T15:39:35.825Z,8.55
2023-01-19T15:44:37.480Z,6.65
2023-01-19T15:49:39.144Z,7.03
2023-01-19T15:54:40.826Z,9.55
2023-01-19T15:59:42.439Z,14.52
2023-01-19T16:04:49.215Z,22.25
2023-01-19T16:09:50.828Z,18.60
2023-01-19T16:14:52.484Z,20.13
2023-01-19T16:19:54.182Z,24.30
2023-01-19T16:24:56.611Z,22.98
2023-01-19T16:30:04.605Z,21.63
2023-01-19T16:35:06.740Z,21.65
2023-01-19T16:40:09.590Z,23.27
2023-01-19T16:45:11.349Z,23.67
2023-01-19T16:50:13.345Z,20.75
2023-01-19T16:55:15.355Z,19.27
2023-01-19T17:00:17.401Z,21.50
2023-01-19T17:05:19.043Z,21.67
2023-01-19T17:10:20.817Z,24.02
2023-01-19T17:15:22.500Z,20.48
2023-01-19T17:20:24.165Z,19.50
2023-01-19T17:25:25.779Z,25.63
2023-01-19T17:30:27.447Z,23.63
2023-01-19T17:35:29.224Z,24.17
2023-01-19T17:40:31.059Z,21.23
2023-01-19T17:45:36.162Z,22.27
2023-01-19T17:50:37.833Z,25.38
2023-01-19T17:55:39.459Z,27.30
2023-01-19T18:00:41.104Z,21.08
2023-01-19T18:05:42.717Z,20.15
2023-01-19T18:10:44.319Z,29.20
2023-01-19T18:15:46.104Z,20.30
2023-01-19T18:20:47.821Z,21.48
2023-01-19T18:25:49.486Z,24.10
2023-01-19T18:30:51.182Z,18.25
2023-01-19T18:36:11.133Z,19.40
2023-01-19T18:41:15.625Z,23.52
2023-01-19T18:46:17.478Z,22.85
2023-01-19T18:51:19.990Z,23.85
2023-01-19T18:56:21.843Z,21.98
2023-01-19T19:01:31.554Z,21.85
2023-01-19T19:06:34.490Z,22.23
2023-01-19T19:11:36.486Z,23.65
2023-01-19T19:16:39.537Z,21.73
2023-01-19T19:21:42.408Z,21.33
2023-01-19T19:26:44.042Z,28.98
2023-01-19T19:31:46.441Z,24.52
2023-01-19T19:36:48.097Z,21.45
2023-01-19T19:41:49.866Z,20.85
2023-01-19T19:46:51.592Z,23.65
2023-01-19T19:51:53.254Z,24.35
2023-01-19T19:56:54.890Z,25.73
2023-01-19T20:01:56.756Z,33.13
2023-01-19T20:07:00.102Z,28.17
2023-01-19T20:12:01.969Z,28.08
2023-01-19T20:17:05.076Z,26.77
2023-01-19T20:22:07.483Z,25.90
2023-01-19T20:27:09.193Z,28.13
2023-01-19T20:32:10.910Z,27.77
2023-01-19T20:37:12.525Z,31.00
2023-01-19T20:42:16.435Z,25.98
2023-01-19T20:47:18.294Z,30.80
2023-01-19T20:52:21.554Z,29.27
2023-01-19T20:57:23.662Z,27.85
2023-01-19T21:02:28.424Z,30.83
2023-01-19T21:07:30.423Z,33.90
2023-01-19T21:12:32.121Z,26.75
2023-01-19T21:17:33.771Z,29.73
2023-01-19T21:22:35.384Z,31.83
2023-01-19T21:27:36.965Z,27.52
2023-01-19T21:32:39.001Z,27.48
2023-01-19T21:37:40.693Z,29.60
2023-01-19T21:42:42.291Z,30.00
2023-01-19T21:47:43.936Z,30.35
2023-01-19T21:52:45.556Z,28.92
2023-01-19T21:57:47.207Z,27.65
2023-01-19T22:03:03.087Z,34.45
2023-01-19T22:08:06.452Z,28.48
2023-01-19T22:13:08.201Z,28.00
2023-01-19T22:18:10.433Z,27.23
2023-01-19T22:23:12.536Z,26.73
2023-01-19T22:28:14.663Z,28.23
2023-01-19T22:33:16.339Z,27.42
2023-01-19T22:38:18.030Z,34.25
2023-01-19T22:43:19.639Z,26.05
2023-01-19T22:48:22.279Z,25.98
2023-01-19T22:53:23.886Z,27.30
2023-01-19T22:58:25.534Z,28.52
2023-01-19T23:03:29.005Z,26.60
2023-01-19T23:08:30.952Z,27.67
2023-01-19T23:13:32.912Z,31.38
2023-01-19T23:18:34.768Z,28.67
2023-01-19T23:23:36.900Z,30.90
2023-01-19T23:28:39.541Z,30.15
2023-01-19T23:33:41.641Z,26.63
2023-01-19T23:38:48.873Z,29.17
2023-01-19T23:43:51.360Z,27.73
2023-01-19T23:48:53.272Z,25.23
2023-01-19T23:53:55.850Z,22.92
2023-01-19T23:59:09.611Z,25.00
